Time;durP1;ratioP1;P1;durP2;ratioP2;P2;SDS_P1;SDS_P2;PMS_P1;PMS_P2;Temp;Humidity;BMP_temperature;BMP_pressure;BME280_temperature;BME280_humidity;BME280_pressure;Samples;Min_cycle;Max_cycle;Signal;HPM_P1;HPM_P2
2022/09/30 00:01:25;;;;;;;19.85;12.95;;;;;;;9.32;90.96;99492.84;2849016;82;21072;-92
2022/09/30 00:05:26;;;;;;;16.67;11.80;;;;;;;9.27;91.89;99495.92;2848430;82;21025;-91
2022/09/30 00:09:27;;;;;;;18.20;13.58;;;;;;;9.26;92.41;99504.87;2856442;83;21033;-92
2022/09/30 00:13:34;;;;;;;19.60;13.98;;;;;;;9.25;92.52;99507.64;2856463;83;21049;-92
2022/09/30 00:17:35;;;;;;;17.00;12.65;;;;;;;9.29;93.07;99505.91;2856526;82;21563;-92
2022/09/30 00:21:36;;;;;;;20.08;12.60;;;;;;;9.26;92.49;99507.52;2856241;82;21029;-89
2022/09/30 00:25:38;;;;;;;21.05;15.60;;;;;;;9.27;92.47;99507.88;2856770;82;21563;-91
2022/09/30 00:29:39;;;;;;;16.30;12.78;;;;;;;9.25;93.21;99507.17;2856817;82;22380;-91
2022/09/30 00:33:41;;;;;;;13.98;11.45;;;;;;;9.14;93.41;99517.41;2848804;81;21543;-90
2022/09/30 00:37:42;;;;;;;18.02;13.72;;;;;;;8.96;93.40;99531.78;2856998;82;21051;-91
2022/09/30 00:41:48;;;;;;;19.80;13.62;;;;;;;8.86;93.17;99533.58;2857596;81;21111;-91
2022/09/30 00:45:56;;;;;;;20.15;12.82;;;;;;;8.84;92.98;99536.82;2832064;83;21037;-90
2022/09/30 00:50:17;;;;;;;24.72;14.00;;;;;;;8.81;92.35;99534.44;2831678;83;21064;-90
2022/09/30 00:54:25;;;;;;;20.12;14.30;;;;;;;8.74;92.76;99541.26;2855372;83;21060;-91
2022/09/30 00:58:44;;;;;;;20.10;14.53;;;;;;;8.74;93.14;99532.80;2855579;83;21001;-92
2022/09/30 01:02:47;;;;;;;26.77;17.85;;;;;;;8.77;92.75;99531.70;2856457;82;21190;-91
2022/09/30 01:06:48;;;;;;;17.55;13.78;;;;;;;8.76;92.29;99534.86;2856796;83;21583;-91
2022/09/30 01:10:49;;;;;;;17.25;13.13;;;;;;;8.73;92.34;99536.42;2856327;82;21087;-91
2022/09/30 01:14:52;;;;;;;16.73;13.08;;;;;;;8.71;92.46;99538.38;2856705;82;21021;-91
2022/09/30 01:19:18;;;;;;;20.68;14.35;;;;;;;8.71;92.35;99531.75;2856485;82;21119;-90
2022/09/30 01:23:41;;;;;;;29.27;18.40;;;;;;;8.76;93.25;99526.05;2855708;83;21076;-89
2022/09/30 01:28:00;;;;;;;24.87;17.67;;;;;;;8.79;93.72;99529.28;2850248;83;21009;-90
2022/09/30 01:32:16;;;;;;;20.92;14.78;;;;;;;8.63;96.08;99525.77;2758928;84;21123;-89
2022/09/30 01:36:42;;;;;;;17.17;13.07;;;;;;;8.38;97.75;99529.17;2759163;84;21687;-90
2022/09/30 01:40:54;;;;;;;20.57;13.55;;;;;;;8.13;98.71;99531.72;2759173;84;21027;-89
2022/09/30 01:45:13;;;;;;;31.85;24.18;;;;;;;8.07;98.84;99533.56;2759980;84;21015;-90
2022/09/30 01:49:38;;;;;;;28.65;20.52;;;;;;;8.09;99.32;99535.13;2769475;84;22503;-90
2022/09/30 01:53:48;;;;;;;22.32;16.48;;;;;;;8.13;98.25;99533.05;2770839;84;21204;-90
2022/09/30 01:57:57;;;;;;;24.23;16.70;;;;;;;8.05;99.66;99536.33;2754163;84;21044;-89
2022/09/30 02:02:09;;;;;;;26.02;14.33;;;;;;;8.12;99.68;99536.20;2772199;84;21099;-91
2022/09/30 02:06:19;;;;;;;19.70;13.68;;;;;;;8.22;99.31;99526.13;2781034;82;21001;-90
2022/09/30 02:10:43;;;;;;;23.45;14.55;;;;;;;8.27;97.98;99534.56;2864257;82;21069;-91
2022/09/30 02:15:02;;;;;;;19.60;15.35;;;;;;;8.33;97.18;99539.33;2872142;81;21036;-91
2022/09/30 02:19:20;;;;;;;21.37;13.93;;;;;;;8.39;96.45;99532.67;2869232;81;21068;-91
2022/09/30 02:23:26;;;;;;;20.12;14.73;;;;;;;8.47;96.20;99539.98;2840253;82;21106;-91
2022/09/30 02:27:40;;;;;;;14.73;12.00;;;;;;;8.48;95.28;99540.33;2937585;80;21007;-92
2022/09/30 02:31:41;;;;;;;25.95;12.63;;;;;;;8.49;95.99;99526.11;2927053;79;21062;-92
2022/09/30 02:35:47;;;;;;;16.17;12.53;;;;;;;8.50;96.68;99525.16;2939863;80;21557;-93
2022/09/30 02:40:05;;;;;;;21.73;13.30;;;;;;;8.52;96.99;99526.70;2860312;82;21050;-93
2022/09/30 02:44:07;;;;;;;22.58;12.35;;;;;;;8.58;97.18;99530.64;2905060;81;21080;-91
2022/09/30 02:48:31;;;;;;;16.52;11.20;;;;;;;8.48;97.39;99535.86;2888904;81;20993;-92
2022/09/30 02:53:06;;;;;;;13.70;11.30;;;;;;;8.44;98.53;99545.87;2720543;86;21062;-91
2022/09/30 02:57:31;;;;;;;17.55;12.98;;;;;;;8.43;100.00;99548.16;2723049;86;21065;-90
2022/09/30 03:01:32;;;;;;;19.82;12.78;;;;;;;8.50;100.00;99560.95;2723200;86;21062;-90
2022/09/30 03:05:34;;;;;;;23.12;12.95;;;;;;;8.67;100.00;99554.20;2740019;86;21212;-89
2022/09/30 03:09:35;;;;;;;20.35;13.50;;;;;;;8.77;100.00;99556.42;2755724;84;21045;-89
2022/09/30 03:13:59;;;;;;;16.52;13.85;;;;;;;8.92;100.00;99567.98;2729382;87;21058;-88
2022/09/30 03:18:14;;;;;;;21.15;12.63;;;;;;;9.02;99.48;99569.36;2710451;87;21677;-89
2022/09/30 03:22:52;;;;;;;17.70;12.73;;;;;;;9.04;99.12;99573.56;2723274;87;21077;-89
2022/09/30 03:27:31;;;;;;;15.78;12.98;;;;;;;9.09;99.06;99579.30;2816426;82;21032;-91
2022/09/30 03:31:49;;;;;;;16.90;12.53;;;;;;;8.99;98.77;99593.03;2906236;80;21009;-90
2022/09/30 03:36:02;;;;;;;20.52;14.90;;;;;;;8.84;98.63;99593.84;2932364;80;20960;-89
2022/09/30 03:40:30;;;;;;;19.62;13.98;;;;;;;8.80;100.00;99591.10;2931666;80;21136;-89
2022/09/30 03:44:40;;;;;;;15.93;12.58;;;;;;;8.87;100.00;99585.65;2854021;82;21039;-89
2022/09/30 03:48:43;;;;;;;20.45;14.15;;;;;;;9.02;100.00;99593.23;2927749;80;21074;-89
2022/09/30 03:52:45;;;;;;;21.42;16.30;;;;;;;9.12;99.57;99584.84;2928431;79;21550;-90
2022/09/30 03:56:46;;;;;;;24.07;15.43;;;;;;;9.06;98.49;99576.92;2896367;80;21081;-90
2022/09/30 04:00:53;;;;;;;16.67;13.20;;;;;;;8.86;98.10;99574.69;2926674;79;21038;-90
2022/09/30 04:04:54;;;;;;;19.42;15.70;;;;;;;8.83;99.55;99577.58;2918215;79;21495;-89
2022/09/30 04:08:55;;;;;;;22.90;13.80;;;;;;;8.83;98.97;99580.23;2938975;80;21050;-90
2022/09/30 04:12:57;;;;;;;19.27;14.30;;;;;;;8.82;98.74;99583.38;2931169;80;21046;-90
2022/09/30 04:16:58;;;;;;;24.95;15.15;;;;;;;8.88;98.57;99579.84;2888053;80;21557;-89
2022/09/30 04:21:00;;;;;;;16.60;12.78;;;;;;;8.93;97.51;99577.16;2907227;80;21509;-90
2022/09/30 04:25:01;;;;;;;20.57;15.08;;;;;;;8.96;96.76;99583.52;2871787;82;21007;-90
2022/09/30 04:29:02;;;;;;;17.17;13.43;;;;;;;8.82;96.50;99589.16;2842550;82;21019;-89
2022/09/30 04:33:03;;;;;;;18.25;14.50;;;;;;;8.64;97.18;99587.10;2871330;81;21450;-89
2022/09/30 04:37:04;;;;;;;21.00;15.10;;;;;;;8.64;97.37;99599.03;2853685;82;21105;-89
2022/09/30 04:41:08;;;;;;;18.42;14.73;;;;;;;8.69;97.52;99615.42;2937736;80;21014;-89
2022/09/30 04:45:11;;;;;;;18.90;14.13;;;;;;;8.76;97.34;99619.72;2917814;80;21021;-89
2022/09/30 04:49:12;;;;;;;17.48;14.23;;;;;;;8.80;96.96;99618.95;2905831;80;21002;-90
2022/09/30 04:53:14;;;;;;;24.32;16.20;;;;;;;8.75;97.33;99621.16;2945150;80;21022;-89
2022/09/30 04:57:16;;;;;;;18.55;15.08;;;;;;;8.83;97.92;99631.94;2939133;80;21014;-90
2022/09/30 05:01:18;;;;;;;22.70;14.70;;;;;;;8.90;97.56;99633.13;2915428;80;21255;-90
2022/09/30 05:05:19;;;;;;;17.15;15.08;;;;;;;8.92;97.59;99644.91;2946566;80;21089;-90
2022/09/30 05:09:20;;;;;;;19.02;15.13;;;;;;;8.97;97.95;99643.55;2937580;80;21052;-90
2022/09/30 05:13:21;;;;;;;19.70;15.50;;;;;;;8.96;98.09;99659.61;2921510;81;21009;-90
2022/09/30 05:17:22;;;;;;;23.22;19.05;;;;;;;8.85;98.53;99655.22;2865798;82;20987;-90
2022/09/30 05:21:23;;;;;;;24.75;17.25;;;;;;;8.91;99.41;99655.16;2924773;80;20978;-90
2022/09/30 05:25:24;;;;;;;24.27;19.00;;;;;;;9.03;99.89;99658.11;2920729;80;20974;-90
2022/09/30 05:29:26;;;;;;;30.17;18.50;;;;;;;9.15;100.00;99665.50;2868466;82;21093;-90
2022/09/30 05:33:28;;;;;;;20.40;16.37;;;;;;;9.17;99.99;99677.32;2905724;82;21031;-90
2022/09/30 05:37:30;;;;;;;20.85;15.60;;;;;;;9.17;100.00;99679.47;2905380;82;21103;-90
2022/09/30 05:41:31;;;;;;;22.40;14.70;;;;;;;9.31;100.00;99676.95;2904879;82;21043;-90
2022/09/30 05:45:33;;;;;;;22.77;15.35;;;;;;;9.25;99.98;99679.67;2903822;81;21055;-90
2022/09/30 05:49:34;;;;;;;20.88;14.58;;;;;;;9.23;100.00;99682.91;2898402;80;21030;-90
2022/09/30 05:53:38;;;;;;;26.02;17.25;;;;;;;9.28;100.00;99688.69;2819370;80;21549;-89
2022/09/30 05:57:39;;;;;;;24.80;16.87;;;;;;;9.43;100.00;99691.83;2918208;80;21070;-90
2022/09/30 06:01:40;;;;;;;23.18;15.65;;;;;;;9.43;100.00;99702.91;2909426;80;21105;-90
2022/09/30 06:05:41;;;;;;;23.73;17.10;;;;;;;9.39;100.00;99703.69;2876507;81;21371;-90
2022/09/30 06:09:43;;;;;;;16.27;14.25;;;;;;;9.40;100.00;99701.86;2878793;82;21093;-90
2022/09/30 06:13:46;;;;;;;23.02;14.53;;;;;;;9.39;100.00;99707.67;2878953;82;21042;-90
2022/09/30 06:17:54;;;;;;;24.50;16.02;;;;;;;9.37;100.00;99708.77;2878683;80;21684;-90
2022/09/30 06:21:56;;;;;;;23.35;15.85;;;;;;;9.41;100.00;99708.84;2875254;81;20968;-90
2022/09/30 06:25:57;;;;;;;22.37;16.87;;;;;;;9.61;100.00;99718.22;2878532;82;21507;-90
2022/09/30 06:29:59;;;;;;;17.70;15.38;;;;;;;9.65;100.00;99707.71;2878645;81;21550;-90
2022/09/30 06:34:00;;;;;;;23.25;16.67;;;;;;;9.51;100.00;99717.71;2879286;81;21058;-90
2022/09/30 06:38:02;;;;;;;23.70;16.82;;;;;;;9.36;100.00;99719.03;2917109;80;21050;-90
2022/09/30 06:42:03;;;;;;;22.60;17.35;;;;;;;9.26;100.00;99727.80;2945767;79;21023;-90
2022/09/30 06:46:04;;;;;;;19.77;15.70;;;;;;;9.35;100.00;99730.62;2934249;80;21062;-90
2022/09/30 06:50:06;;;;;;;21.27;17.05;;;;;;;9.36;100.00;99738.94;2931388;80;20979;-90
2022/09/30 06:54:09;;;;;;;23.38;15.65;;;;;;;9.39;100.00;99743.50;2851323;80;29452;-90
2022/09/30 06:58:14;;;;;;;25.62;16.95;;;;;;;9.43;100.00;99741.41;2940989;80;20986;-90
2022/09/30 07:02:15;;;;;;;22.45;15.03;;;;;;;9.48;100.00;99737.89;2915678;80;21051;-90
2022/09/30 07:06:16;;;;;;;21.87;16.12;;;;;;;9.56;100.00;99751.84;2939731;80;21074;-90
2022/09/30 07:10:18;;;;;;;22.93;16.62;;;;;;;9.71;100.00;99763.77;2911428;80;21034;-90
2022/09/30 07:14:22;;;;;;;17.48;14.35;;;;;;;9.92;100.00;99767.36;2934034;80;21528;-90
2022/09/30 07:18:27;;;;;;;29.32;18.25;;;;;;;10.05;100.00;99771.09;2900099;81;21030;-90
2022/09/30 07:22:31;;;;;;;25.15;16.48;;;;;;;10.19;100.00;99773.86;2872000;81;21098;-91
2022/09/30 07:26:32;;;;;;;21.75;17.85;;;;;;;10.21;100.00;99774.09;2869509;82;21062;-91
2022/09/30 07:30:33;;;;;;;27.05;16.23;;;;;;;10.26;100.00;99766.53;2868505;82;21044;-91
2022/09/30 07:34:35;;;;;;;21.68;18.30;;;;;;;10.37;100.00;99771.40;2873244;82;20976;-90
2022/09/30 07:38:39;;;;;;;25.90;17.98;;;;;;;10.46;100.00;99773.25;2869447;82;21072;-90
2022/09/30 07:42:44;;;;;;;20.72;17.27;;;;;;;10.56;100.00;99773.27;2868850;82;21069;-90
2022/09/30 07:46:45;;;;;;;24.05;17.02;;;;;;;10.71;100.00;99775.87;2867297;82;21069;-91
2022/09/30 07:50:47;;;;;;;24.95;17.37;;;;;;;10.68;100.00;99786.80;2871219;82;21038;-90
2022/09/30 07:54:48;;;;;;;20.45;15.88;;;;;;;10.87;100.00;99795.77;2866015;82;21537;-90
2022/09/30 07:58:56;;;;;;;27.02;18.75;;;;;;;11.07;100.00;99799.75;2873826;82;21046;-90
2022/09/30 08:02:57;;;;;;;24.27;18.23;;;;;;;11.14;99.64;99804.85;2871542;82;21075;-90
2022/09/30 08:07:01;;;;;;;33.08;25.55;;;;;;;11.34;100.00;99812.81;2901623;81;21046;-90
2022/09/30 08:11:05;;;;;;;25.52;17.35;;;;;;;11.57;100.00;99806.69;2907309;80;21018;-91
2022/09/30 08:15:08;;;;;;;19.90;16.27;;;;;;;11.68;100.00;99804.34;2906656;81;21525;-91
2022/09/30 08:19:17;;;;;;;22.37;18.62;;;;;;;11.79;98.62;99808.17;2907523;80;21089;-91
2022/09/30 08:23:18;;;;;;;21.35;17.17;;;;;;;11.99;99.14;99817.42;2864626;82;21586;-91
2022/09/30 08:27:20;;;;;;;27.05;20.08;;;;;;;12.04;96.45;99808.52;2861617;82;21546;-91
2022/09/30 08:31:23;;;;;;;30.15;20.85;;;;;;;12.08;96.84;99809.89;2865660;82;21605;-91
2022/09/30 08:35:24;;;;;;;26.57;19.67;;;;;;;12.23;98.49;99808.91;2859242;82;21015;-91
2022/09/30 08:39:26;;;;;;;31.00;19.77;;;;;;;12.37;94.72;99815.56;2866164;82;21065;-91
2022/09/30 08:43:32;;;;;;;27.60;20.60;;;;;;;12.43;95.49;99816.31;2866328;82;21055;-91
2022/09/30 08:47:57;;;;;;;25.50;18.37;;;;;;;12.55;95.89;99822.28;2868047;82;21058;-91
2022/09/30 08:52:00;;;;;;;30.50;21.35;;;;;;;12.68;96.09;99829.09;2823031;83;21037;-90
2022/09/30 08:56:04;;;;;;;34.43;23.80;;;;;;;12.75;95.90;99832.83;2778223;83;21645;-91
2022/09/30 09:00:11;;;;;;;28.38;21.07;;;;;;;12.92;95.77;99832.48;2810832;84;21077;-91
2022/09/30 09:04:13;;;;;;;27.32;21.25;;;;;;;13.05;94.25;99829.42;2762095;83;21057;-91
2022/09/30 09:08:28;;;;;;;35.68;19.92;;;;;;;13.19;94.63;99829.88;2743318;85;21082;-92
2022/09/30 09:13:02;;;;;;;26.50;19.87;;;;;;;13.25;94.27;99825.25;2789085;83;21090;-90
2022/09/30 09:17:28;;;;;;;33.05;20.55;;;;;;;13.47;94.81;99829.81;2799107;83;21046;-92
2022/09/30 09:21:40;;;;;;;34.67;23.73;;;;;;;13.72;93.83;99830.79;2770851;84;21014;-91
2022/09/30 09:25:43;;;;;;;29.63;19.90;;;;;;;13.99;93.46;99843.15;2793200;84;21222;-92
2022/09/30 09:30:08;;;;;;;35.20;22.77;;;;;;;13.96;90.84;99848.81;2853344;82;21007;-91
2022/09/30 09:34:12;;;;;;;30.65;21.15;;;;;;;14.02;90.58;99855.38;2861621;82;21638;-91
2022/09/30 09:39:00;;;;;;;29.57;21.42;;;;;;;14.34;92.75;99847.66;2935208;79;21007;-91
2022/09/30 09:43:18;;;;;;;27.02;20.80;;;;;;;14.64;91.57;99854.28;2923694;80;21038;-91
2022/09/30 09:47:20;;;;;;;26.45;19.30;;;;;;;14.97;89.55;99858.89;2851632;82;21040;-91
2022/09/30 09:51:32;;;;;;;29.70;20.57;;;;;;;15.08;86.58;99859.92;2939638;80;20996;-91
2022/09/30 09:55:33;;;;;;;23.20;19.20;;;;;;;15.30;87.40;99864.78;2931306;80;21401;-91
2022/09/30 09:59:36;;;;;;;32.55;22.05;;;;;;;15.47;84.78;99851.72;2924958;80;21066;-91
2022/09/30 10:03:38;;;;;;;27.90;21.65;;;;;;;15.43;83.58;99857.09;2936774;77;21004;-91
2022/09/30 10:07:39;;;;;;;31.00;22.75;;;;;;;15.47;84.90;99858.94;2931812;79;21003;-91
2022/09/30 10:11:40;;;;;;;31.07;22.82;;;;;;;15.58;84.45;99862.59;2935787;80;20992;-91
2022/09/30 10:15:42;;;;;;;32.93;22.67;;;;;;;15.74;83.98;99867.61;2936118;80;21071;-91
2022/09/30 10:19:50;;;;;;;30.43;25.65;;;;;;;15.40;85.43;99864.13;2924630;80;21076;-91
2022/09/30 10:23:52;;;;;;;25.70;21.30;;;;;;;15.45;86.35;99865.80;2878055;82;21087;-91
2022/09/30 10:28:01;;;;;;;31.37;22.20;;;;;;;15.87;86.08;99865.73;2928469;80;21003;-91
2022/09/30 10:32:05;;;;;;;32.58;24.50;;;;;;;16.06;82.10;99861.36;2860255;82;20928;-92
2022/09/30 10:36:15;;;;;;;27.85;22.02;;;;;;;16.22;82.67;99856.47;2940136;80;20976;-91
2022/09/30 10:40:17;;;;;;;32.65;23.60;;;;;;;16.35;82.02;99859.94;2932558;80;21919;-92
2022/09/30 10:44:22;;;;;;;30.92;21.40;;;;;;;16.10;85.00;99855.98;2844559;82;20975;-91
2022/09/30 10:48:24;;;;;;;30.23;22.60;;;;;;;16.32;85.92;99851.39;2877806;82;21553;-91
2022/09/30 10:52:33;;;;;;;32.30;25.27;;;;;;;16.26;82.86;99845.71;2870858;82;21114;-91
2022/09/30 10:56:39;;;;;;;29.40;20.82;;;;;;;16.43;84.33;99848.33;2856514;82;21026;-91
2022/09/30 11:00:42;;;;;;;29.98;22.60;;;;;;;16.37;84.46;99849.01;2862812;80;21055;-91
2022/09/30 11:05:07;;;;;;;28.83;21.17;;;;;;;16.32;85.61;99850.89;2913469;80;21057;-92
2022/09/30 11:09:36;;;;;;;27.20;20.55;;;;;;;16.12;85.46;99859.36;2912568;80;21540;-92
2022/09/30 11:14:10;;;;;;;31.20;22.45;;;;;;;16.10;85.06;99852.48;2898118;80;21022;-91
2022/09/30 11:18:56;;;;;;;23.50;20.80;;;;;;;16.36;86.12;99858.07;2873482;81;21020;-91
2022/09/30 11:23:05;;;;;;;27.13;19.48;;;;;;;16.69;84.76;99857.40;2890433;81;21006;-91
2022/09/30 11:27:33;;;;;;;26.33;18.67;;;;;;;16.83;84.39;99850.95;2863080;82;21014;-89
2022/09/30 11:32:01;;;;;;;29.30;21.17;;;;;;;16.96;82.62;99848.52;2876349;82;20992;-90
2022/09/30 11:36:31;;;;;;;27.13;21.02;;;;;;;17.11;81.74;99841.89;2765945;84;21053;-89
2022/09/30 11:40:40;;;;;;;23.27;18.25;;;;;;;17.11;80.75;99850.48;2642536;89;21085;-89
2022/09/30 11:44:44;;;;;;;20.02;17.32;;;;;;;17.28;82.22;99852.52;2632899;89;21576;-89
2022/09/30 11:49:02;;;;;;;22.27;16.65;;;;;;;17.33;79.69;99848.77;2634210;89;21576;-90
2022/09/30 11:53:30;;;;;;;20.00;15.03;;;;;;;17.39;80.93;99853.94;2537218;92;21589;-90
2022/09/30 11:58:03;;;;;;;22.42;19.10;;;;;;;17.40;82.45;99855.61;2541642;92;21644;-89
2022/09/30 12:02:16;;;;;;;17.50;13.90;;;;;;;17.45;80.65;99847.83;2515893;93;21112;-89
2022/09/30 12:06:43;;;;;;;23.02;17.30;;;;;;;17.63;77.88;99850.69;2534762;92;21627;-89
2022/09/30 12:10:59;;;;;;;23.90;17.07;;;;;;;17.59;77.48;99847.55;2553882;90;21150;-90
2022/09/30 12:15:06;;;;;;;19.62;15.45;;;;;;;17.66;79.96;99844.94;2549398;92;21654;-89
2022/09/30 12:19:34;;;;;;;18.45;15.03;;;;;;;17.70;78.60;99856.50;2712863;86;21043;-89
2022/09/30 12:23:50;;;;;;;17.10;15.28;;;;;;;17.53;75.99;99852.30;2716972;86;21125;-90
2022/09/30 12:32:31;;;;;;;25.20;14.38;;;;;;;17.28;79.64;99864.09;2844866;80;21056;-90
2022/09/30 12:36:43;;;;;;;15.40;10.85;;;;;;;17.40;80.55;99852.92;2896851;81;21012;-89
2022/09/30 12:41:11;;;;;;;14.93;11.08;;;;;;;17.60;78.99;99851.06;2909100;81;21077;-90
2022/09/30 12:45:38;;;;;;;13.98;10.43;;;;;;;17.42;73.81;99845.50;2908936;81;21087;-90
2022/09/30 12:49:42;;;;;;;16.05;13.28;;;;;;;17.50;73.70;99854.86;2910045;81;21027;-89
2022/09/30 12:53:45;;;;;;;13.93;12.10;;;;;;;17.37;77.03;99851.94;2910021;81;21647;-89
2022/09/30 12:57:48;;;;;;;13.38;11.33;;;;;;;17.18;74.91;99851.42;2880409;81;21081;-90
2022/09/30 13:01:50;;;;;;;16.55;11.05;;;;;;;17.17;74.95;99848.89;2911220;81;21019;-89
2022/09/30 13:05:56;;;;;;;14.20;12.23;;;;;;;17.23;76.60;99856.27;2911759;81;21033;-90
2022/09/30 13:10:03;;;;;;;17.45;11.60;;;;;;;17.40;75.79;99854.27;2912084;81;21040;-89
2022/09/30 13:14:34;;;;;;;16.42;10.68;;;;;;;17.40;73.99;99858.30;2938931;80;21015;-90
2022/09/30 13:18:43;;;;;;;9.03;7.17;;;;;;;17.49;72.96;99853.19;2953738;80;21050;-90
2022/09/30 13:22:44;;;;;;;12.15;8.15;;;;;;;17.63;72.78;99858.77;2911969;80;21037;-88
2022/09/30 13:26:47;;;;;;;12.75;8.38;;;;;;;17.69;71.23;99856.70;2878702;82;21004;-88
2022/09/30 13:30:49;;;;;;;13.98;9.95;;;;;;;17.72;70.04;99853.64;2891740;82;21020;-89
2022/09/30 13:34:56;;;;;;;20.32;13.70;;;;;;;17.79;71.88;99859.13;2920355;80;21672;-88
2022/09/30 13:39:22;;;;;;;12.73;10.15;;;;;;;17.88;72.12;99858.51;2814199;81;21021;-91
2022/09/30 13:43:40;;;;;;;12.88;9.50;;;;;;;17.79;70.82;99850.53;2913538;80;21026;-92
2022/09/30 13:48:09;;;;;;;11.78;8.65;;;;;;;17.69;71.02;99841.91;2920337;80;21046;-91
2022/09/30 13:52:21;;;;;;;14.55;9.15;;;;;;;17.80;68.82;99834.72;2927563;80;21101;-89
2022/09/30 13:56:31;;;;;;;9.23;7.65;;;;;;;17.76;68.97;99840.15;2939884;80;21030;-90
2022/09/30 14:00:38;;;;;;;10.45;8.30;;;;;;;17.83;69.32;99841.07;2951304;80;20999;-91
2022/09/30 14:05:15;;;;;;;9.88;6.08;;;;;;;17.80;68.05;99840.09;2895378;80;21034;-90
2022/09/30 14:09:58;;;;;;;13.18;6.75;;;;;;;17.79;67.28;99828.20;2950421;80;20983;-91
2022/09/30 14:14:14;;;;;;;15.58;7.95;;;;;;;17.68;68.45;99830.80;2884304;82;21060;-91
2022/09/30 14:18:48;;;;;;;9.53;7.33;;;;;;;17.79;71.49;99833.05;2920778;80;21053;-90
2022/09/30 14:22:49;;;;;;;8.55;7.08;;;;;;;17.82;69.20;99827.30;2879679;80;21002;-92
2022/09/30 14:27:27;;;;;;;12.40;5.90;;;;;;;17.80;70.30;99834.72;2885211;81;21058;-92
2022/09/30 14:31:31;;;;;;;10.90;5.62;;;;;;;17.76;68.37;99848.71;2922015;80;21155;-91
2022/09/30 14:35:34;;;;;;;7.05;5.87;;;;;;;17.88;68.98;99857.16;2926340;79;20986;-91
2022/09/30 14:39:35;;;;;;;10.43;5.97;;;;;;;17.87;66.12;99848.27;2913473;80;21071;-92
2022/09/30 14:43:40;;;;;;;8.08;5.65;;;;;;;17.73;65.11;99853.12;2903162;80;21035;-93
2022/09/30 14:47:48;;;;;;;22.60;13.80;;;;;;;17.58;64.80;99853.92;2893559;80;21057;-92
2022/09/30 14:51:49;;;;;;;29.12;18.42;;;;;;;17.53;67.31;99855.84;2883597;80;21030;-92
2022/09/30 14:55:51;;;;;;;19.02;11.93;;;;;;;17.52;66.89;99856.00;2888484;80;21041;-92
2022/09/30 15:00:14;;;;;;;14.45;11.78;;;;;;;17.57;66.21;99852.25;2853339;79;21294;-91
2022/09/30 15:04:24;;;;;;;12.53;8.10;;;;;;;17.47;66.29;99847.13;2879267;80;21038;-92
2022/09/30 15:08:25;;;;;;;11.93;7.65;;;;;;;17.42;67.44;99852.23;2818865;82;21048;-92
2022/09/30 15:12:27;;;;;;;9.23;7.72;;;;;;;17.50;65.40;99845.45;2854140;82;21027;-92
2022/09/30 15:16:30;;;;;;;25.10;16.42;;;;;;;17.40;64.65;99844.36;2860881;81;21044;-91
2022/09/30 15:20:37;;;;;;;28.32;21.30;;;;;;;17.39;63.85;99843.19;2888160;80;21002;-90
2022/09/30 15:24:40;;;;;;;22.10;12.85;;;;;;;17.34;65.33;99862.53;2843268;82;21011;-91
2022/09/30 15:28:42;;;;;;;12.37;8.15;;;;;;;17.26;67.42;99879.56;2932120;80;20970;-91
2022/09/30 15:32:44;;;;;;;10.08;6.92;;;;;;;17.22;64.43;99870.72;2876730;80;21027;-91
2022/09/30 15:36:50;;;;;;;14.53;10.10;;;;;;;17.12;66.34;99866.41;2878203;82;21511;-90
2022/09/30 15:41:02;;;;;;;27.13;17.40;;;;;;;17.05;66.92;99861.42;2908078;80;21039;-91
2022/09/30 15:45:34;;;;;;;28.85;16.73;;;;;;;16.99;67.79;99865.66;2923191;80;21015;-90
2022/09/30 15:49:44;;;;;;;18.62;14.00;;;;;;;16.92;65.84;99858.45;2862811;82;21388;-90
2022/09/30 15:53:47;;;;;;;30.27;20.97;;;;;;;16.92;66.53;99874.08;2877139;80;22818;-90
2022/09/30 15:57:50;;;;;;;36.85;25.27;;;;;;;16.81;67.86;99879.84;2884234;80;20990;-90
2022/09/30 16:01:55;;;;;;;14.03;9.58;;;;;;;16.65;69.26;99875.41;2872745;82;21054;-90
2022/09/30 16:06:10;;;;;;;23.85;16.27;;;;;;;16.56;69.04;99877.29;2886048;81;21558;-91
2022/09/30 16:10:19;;;;;;;23.30;16.23;;;;;;;16.46;69.71;99886.90;2907526;80;21010;-90
2022/09/30 16:14:36;;;;;;;14.87;11.08;;;;;;;16.33;71.04;99888.80;2895940;80;21114;-89
2022/09/30 16:18:42;;;;;;;12.00;8.05;;;;;;;16.21;71.80;99893.70;2897585;81;20986;-89
2022/09/30 16:22:50;;;;;;;12.73;10.53;;;;;;;15.99;73.13;99905.99;2856138;82;21121;-90
2022/09/30 16:26:54;;;;;;;15.50;10.58;;;;;;;15.66;76.17;99898.80;2889371;81;21031;-89
2022/09/30 16:30:55;;;;;;;14.00;10.72;;;;;;;15.39;78.16;99905.33;2925452;80;21554;-89
2022/09/30 16:34:57;;;;;;;16.67;12.10;;;;;;;15.23;77.46;99914.17;2901705;80;21027;-90
2022/09/30 16:38:59;;;;;;;17.82;12.10;;;;;;;15.07;78.78;99909.63;2865964;80;21057;-89
2022/09/30 16:43:03;;;;;;;12.80;11.50;;;;;;;14.97;79.02;99920.00;2800516;81;21018;-89
2022/09/30 16:47:05;;;;;;;30.27;16.48;;;;;;;14.92;80.23;99918.30;2862264;82;21091;-89
2022/09/30 16:51:18;;;;;;;22.62;14.30;;;;;;;14.93;81.04;99929.34;2870009;81;21071;-89
2022/09/30 16:55:18;;;;;;;16.70;12.47;;;;;;;14.86;82.06;99931.01;2856199;79;21668;-93
2022/09/30 16:59:19;;;;;;;20.10;13.18;;;;;;;14.89;81.74;99925.84;2845449;82;20975;-91
2022/09/30 17:03:21;;;;;;;14.68;11.48;;;;;;;14.87;81.93;99928.66;2844012;81;21088;-92
2022/09/30 17:07:22;;;;;;;26.35;12.45;;;;;;;14.74;83.28;99923.78;2854084;81;21034;-92
2022/09/30 17:11:28;;;;;;;24.80;16.07;;;;;;;14.56;83.92;99923.86;2814383;82;20998;-93
2022/09/30 17:15:32;;;;;;;24.70;16.82;;;;;;;14.42;84.21;99930.14;2820450;82;21100;-91
2022/09/30 17:19:34;;;;;;;35.25;24.45;;;;;;;14.41;84.56;99924.94;2824382;82;21022;-92
2022/09/30 17:23:35;;;;;;;40.75;23.67;;;;;;;14.40;84.56;99916.57;2855204;82;20986;-93
2022/09/30 17:27:38;;;;;;;29.35;17.67;;;;;;;14.36;84.78;99922.77;2802079;83;21051;-91
2022/09/30 17:31:39;;;;;;;25.32;19.30;;;;;;;14.36;84.97;99927.26;2819305;83;21087;-93
2022/09/30 17:35:40;;;;;;;20.60;15.78;;;;;;;14.34;84.65;99927.41;2819227;83;21031;-93
2022/09/30 17:39:42;;;;;;;18.85;15.05;;;;;;;14.11;86.03;99930.63;2802603;83;21630;-91
2022/09/30 17:43:44;;;;;;;21.05;13.28;;;;;;;13.76;87.44;99936.91;2816466;83;21054;-92
2022/09/30 17:47:45;;;;;;;26.00;15.32;;;;;;;13.43;89.91;99946.83;2815165;83;21586;-95
2022/09/30 17:56:21;;;;;;;23.15;14.20;;;;;;;12.90;92.84;99955.92;2973119;79;22859;-94
2022/09/30 18:00:22;;;;;;;;;;;;;;;12.75;92.48;99962.73;2920637;80;21070;-93
2022/09/30 18:04:24;;;;;;;24.63;15.85;;;;;;;12.61;94.60;99968.08;2938698;80;20116;-93
2022/09/30 18:08:27;;;;;;;32.48;23.02;;;;;;;12.58;93.95;99970.56;2958276;79;21006;-94
2022/09/30 18:12:28;;;;;;;127.35;87.78;;;;;;;12.40;95.83;99963.80;2927378;80;21109;-94
2022/09/30 18:16:32;;;;;;;43.15;33.83;;;;;;;12.37;97.59;99968.92;2858692;80;21313;-94
2022/09/30 18:20:34;;;;;;;31.17;23.85;;;;;;;12.28;99.09;99967.14;2942089;80;21509;-92
2022/09/30 18:28:57;;;;;;;69.60;40.23;;;;;;;12.25;100.00;99973.59;2941884;80;20987;-94
2022/09/30 18:32:58;;;;;;;47.55;32.45;;;;;;;12.27;100.00;99968.95;2943302;80;20995;-94
2022/09/30 18:37:02;;;;;;;120.72;70.03;;;;;;;12.34;99.14;99977.22;2922474;79;21010;-94
2022/09/30 18:41:06;;;;;;;280.05;143.20;;;;;;;12.40;98.32;99973.14;2922065;80;21042;-94
2022/09/30 18:45:11;;;;;;;147.80;79.32;;;;;;;12.34;99.32;99981.22;2931108;80;21054;-95
2022/09/30 18:49:12;;;;;;;73.40;43.20;;;;;;;12.28;99.97;99975.14;2853543;82;21652;-92
2022/09/30 18:53:14;;;;;;;57.65;38.20;;;;;;;12.23;100.00;99985.41;2901950;81;21125;-94
2022/09/30 18:57:16;;;;;;;40.20;28.02;;;;;;;12.23;100.00;99992.08;2896693;81;21015;-93
2022/09/30 19:01:19;;;;;;;30.82;21.40;;;;;;;12.25;100.00;99990.92;2854346;82;21038;-95
2022/09/30 19:05:20;;;;;;;31.15;19.23;;;;;;;12.22;100.00;99981.06;2828152;82;21066;-94
2022/09/30 19:09:25;;;;;;;29.12;19.05;;;;;;;12.31;100.00;99976.18;2852737;81;21070;-95
2022/09/30 19:13:27;;;;;;;20.20;18.00;;;;;;;12.35;100.00;99982.90;2855259;82;21102;-95
2022/09/30 19:17:30;;;;;;;25.00;18.40;;;;;;;12.25;100.00;99975.44;2861952;82;21033;-95